Time;durP1;ratioP1;P1;durP2;ratioP2;P2;SDS_P1;SDS_P2;PMS_P1;PMS_P2;Temp;Humidity;BMP_temperature;BMP_pressure;BME280_temperature;BME280_humidity;BME280_pressure;Samples;Min_cycle;Max_cycle;Signal;HPM_P1;HPM_P2
2023/11/07 16:34:28;;;;;;;5.50;3.70;;;;;;;10.71;75.90;98746.41;6300711;22;20059;-89
2023/11/07 16:38:05;;;;;;;6.13;3.80;;;;;;;10.69;75.61;98741.25;6150827;23;20030;-92
2023/11/07 16:41:00;;;;;;;9.73;4.20;;;;;;;10.65;75.83;98737.56;6151713;23;20049;-91
2023/11/07 16:43:40;;;;;;;19.48;6.35;;;;;;;10.58;76.23;98731.81;6081301;23;20022;-88
2023/11/07 16:46:15;;;;;;;10.15;4.78;;;;;;;10.48;76.29;98710.31;6087305;23;20045;-89
2023/11/07 17:08:38;;;;;;;6.78;4.00;;;;;;;10.41;75.58;98731.88;6265133;22;20101;-91
2023/11/07 17:17:18;;;;;;;6.82;3.42;;;;;;;10.29;75.12;98729.81;6297977;22;20007;-90
2023/11/07 17:32:32;;;;;;;9.93;3.88;;;;;;;10.47;75.62;98772.38;6328216;22;20094;-91
2023/11/07 17:38:38;;;;;;;7.68;3.53;;;;;;;10.44;75.64;98772.22;6323761;22;20038;-91
2023/11/07 17:41:16;;;;;;;11.13;4.13;;;;;;;10.50;75.95;98785.38;6279944;22;20027;-91
2023/11/07 17:43:47;;;;;;;8.50;4.35;;;;;;;10.33;75.34;98747.16;6281631;22;20025;-89
2023/11/07 17:47:03;;;;;;;8.02;4.07;;;;;;;9.88;75.87;98693.72;6318138;22;20053;-93
2023/11/07 17:49:35;;;;;;;12.35;4.20;;;;;;;9.84;76.19;98691.97;6167155;23;20036;-92
2023/11/07 17:52:26;;;;;;;8.82;3.75;;;;;;;10.07;76.04;98731.59;6199956;22;20027;-90
2023/11/07 17:54:59;;;;;;;11.32;4.18;;;;;;;10.11;76.01;98732.56;6280913;22;20045;-90
2023/11/07 17:57:45;;;;;;;7.50;4.50;;;;;;;10.20;76.79;98746.19;6231105;22;20038;-90
2023/11/07 18:00:47;;;;;;;10.52;4.70;;;;;;;9.73;76.64;98686.00;6216286;23;20017;-92
2023/11/07 18:03:16;;;;;;;13.73;4.65;;;;;;;9.83;76.87;98699.34;6146860;23;20026;-89
2023/11/07 18:06:28;;;;;;;9.90;4.75;;;;;;;10.35;77.12;98783.16;6125929;23;20006;-89
2023/11/07 18:08:56;;;;;;;12.85;5.05;;;;;;;10.18;77.16;98764.84;6125796;23;20024;-90
2023/11/07 18:12:35;;;;;;;8.77;4.35;;;;;;;10.10;77.52;98757.47;6140728;23;20026;-89
2023/11/07 18:15:13;;;;;;;8.48;4.32;;;;;;;10.31;77.53;98795.84;6146770;23;20018;-90
2023/11/07 18:23:30;;;;;;;10.32;6.00;;;;;;;10.10;77.56;98771.13;6242192;22;20003;-89
2023/11/07 18:26:24;;;;;;;;;;;;;;;;;;;;;
2023/11/07 18:29:19;;;;;;;14.18;5.30;;;;;;;10.38;78.01;98815.28;6221938;23;20055;-90
2023/11/07 18:50:01;;;;;;;8.75;4.95;;;;;;;9.78;79.00;98743.19;6323816;22;20094;-90
2023/11/07 18:58:25;;;;;;;9.45;5.18;;;;;;;10.16;79.36;98794.38;6303189;22;20028;-90
2023/11/07 19:04:44;;;;;;;7.50;4.43;;;;;;;10.12;79.04;98796.97;6302335;22;20023;-91
2023/11/07 19:07:52;;;;;;;5.68;3.47;;;;;;;10.44;79.48;98843.25;6287490;22;20012;-90
2023/11/07 19:10:41;;;;;;;6.47;3.83;;;;;;;10.20;79.44;98808.19;6275887;22;20016;-90
2023/11/07 19:14:13;;;;;;;6.18;3.63;;;;;;;10.15;79.68;98794.72;6258487;22;20031;-90
2023/11/07 19:23:24;;;;;;;6.78;3.70;;;;;;;10.43;79.35;98841.63;6281568;22;20019;-90
2023/11/07 19:26:06;;;;;;;9.20;3.78;;;;;;;10.27;79.10;98814.81;6239004;22;20032;-90
2023/11/07 19:37:56;;;;;;;6.80;3.17;;;;;;;9.98;78.60;98769.03;6295779;22;20066;-90
2023/11/07 19:40:32;;;;;;;9.27;3.60;;;;;;;10.11;78.97;98797.28;6283447;22;20006;-90
2023/11/07 19:43:08;;;;;;;7.55;3.58;;;;;;;9.95;79.17;98768.88;6281766;22;20021;-93
2023/11/07 19:49:31;;;;;;;4.57;3.28;;;;;;;10.35;78.76;98841.31;6302178;22;20011;-90
2023/11/07 19:52:04;;;;;;;10.57;3.35;;;;;;;9.87;79.66;98765.81;6241776;22;20020;-89
2023/11/07 19:54:30;;;;;;;6.93;3.63;;;;;;;10.14;80.26;98807.56;6224412;22;20006;-91
2023/11/07 19:57:00;;;;;;;6.13;3.53;;;;;;;10.01;80.96;98800.34;6225329;22;20035;-91
2023/11/07 19:59:29;;;;;;;5.95;3.08;;;;;;;10.05;80.61;98804.84;6273010;22;20019;-89
2023/11/07 20:02:11;;;;;;;5.82;3.20;;;;;;;10.07;80.91;98821.72;6248767;22;20071;-91
2023/11/07 20:05:15;;;;;;;;;;;;;;;10.32;81.29;98865.75;6301247;22;19995;-91
2023/11/07 20:07:52;;;;;;;5.75;3.60;;;;;;;9.76;81.16;98780.09;6254083;22;19899;-91
2023/11/07 20:10:49;;;;;;;6.22;3.33;;;;;;;10.13;81.25;98841.47;6252297;22;20020;-91
2023/11/07 20:14:00;;;;;;;6.30;3.20;;;;;;;9.76;81.00;98791.03;6132651;23;20030;-91
2023/11/07 20:16:35;;;;;;;3.92;2.75;;;;;;;10.06;80.81;98836.47;6079488;23;20069;-90
2023/11/07 20:19:02;;;;;;;3.75;2.63;;;;;;;9.86;80.83;98801.63;6029732;23;20030;-90
2023/11/07 20:21:38;;;;;;;6.40;2.92;;;;;;;10.19;80.36;98839.38;6123566;23;20001;-90
2023/11/07 20:24:09;;;;;;;5.15;3.28;;;;;;;10.02;80.65;98813.66;6076685;23;20006;-90
2023/11/07 20:26:45;;;;;;;4.95;2.90;;;;;;;9.71;81.28;98775.63;6076400;23;20089;-90
2023/11/07 20:29:34;;;;;;;5.65;3.10;;;;;;;10.06;82.50;98841.13;6067474;23;20022;-92
2023/11/07 20:32:03;;;;;;;7.43;3.15;;;;;;;9.87;82.57;98827.81;6096616;23;20022;-91
2023/11/07 20:40:19;;;;;;;7.15;2.35;;;;;;;10.01;83.08;98877.59;6295711;22;19919;-90
2023/11/07 20:43:12;;;;;;;5.30;2.92;;;;;;;9.99;83.30;98882.56;6247617;22;20031;-92
2023/11/07 20:45:45;;;;;;;8.05;3.33;;;;;;;9.58;83.30;98814.78;6223695;22;20018;-87
2023/11/07 20:48:18;;;;;;;3.83;2.60;;;;;;;9.82;83.32;98871.63;6231620;23;20032;-90
2023/11/07 20:50:44;;;;;;;4.13;2.70;;;;;;;9.57;83.28;98829.50;6213937;23;20016;-89
2023/11/07 20:53:10;;;;;;;3.35;2.60;;;;;;;9.94;83.25;98885.47;6238578;23;20079;-90
2023/11/07 20:59:01;;;;;;;12.90;2.88;;;;;;;9.93;83.17;98888.50;6261357;23;20051;-91
2023/11/07 21:02:18;;;;;;;5.03;3.03;;;;;;;9.59;83.26;98839.00;6119146;23;20041;-91
2023/11/07 21:04:54;;;;;;;4.10;2.83;;;;;;;9.33;82.81;98803.47;6076578;23;20013;-91
2023/11/07 21:11:04;;;;;;;8.75;2.85;;;;;;;9.98;82.50;98902.81;6312348;22;20027;-93
2023/11/07 21:13:35;;;;;;;6.63;2.83;;;;;;;9.25;82.05;98803.47;6306695;22;20030;-91
2023/11/07 21:16:05;;;;;;;6.25;2.72;;;;;;;9.37;82.03;98820.84;6254571;22;20023;-90
2023/11/07 21:18:34;;;;;;;3.55;2.72;;;;;;;9.27;81.41;98815.66;6278806;22;20071;-92
2023/11/07 21:21:04;;;;;;;5.90;2.80;;;;;;;9.37;81.44;98829.00;6281158;22;20026;-90
2023/11/07 21:23:31;;;;;;;3.80;2.85;;;;;;;9.81;81.31;98900.06;6280320;22;20030;-89
2023/11/07 21:25:57;;;;;;;4.13;2.78;;;;;;;9.35;81.50;98836.69;6275939;22;20035;-90
2023/11/07 21:28:24;;;;;;;3.60;2.87;;;;;;;9.88;81.02;98911.31;6254665;22;20069;-89
2023/11/07 21:30:51;;;;;;;5.95;3.15;;;;;;;9.49;81.06;98868.50;6251751;22;20034;-90
2023/11/07 21:36:16;;;;;;;4.38;2.75;;;;;;;9.24;81.27;98845.47;6297601;22;20027;-89
2023/11/07 21:38:44;;;;;;;7.23;3.30;;;;;;;9.65;81.20;98919.59;6242869;22;20019;-88
2023/11/07 21:41:36;;;;;;;4.97;3.03;;;;;;;9.31;80.77;98864.94;6273168;22;20261;-89
2023/11/07 21:44:04;;;;;;;8.02;3.72;;;;;;;9.33;80.99;98876.31;6216874;22;20054;-90
2023/11/07 21:46:31;;;;;;;9.60;3.50;;;;;;;9.32;80.89;98869.25;6243763;22;20066;-90
2023/11/07 21:49:05;;;;;;;12.63;3.92;;;;;;;9.46;81.14;98891.75;6222194;22;20022;-89
2023/11/07 21:51:59;;;;;;;4.65;2.88;;;;;;;9.11;80.69;98858.91;6251748;22;20079;-88
2023/11/07 21:54:27;;;;;;;6.57;3.35;;;;;;;9.37;80.81;98899.94;6251891;22;20016;-90
2023/11/07 21:56:56;;;;;;;8.85;3.40;;;;;;;9.24;81.11;98895.38;6244678;22;20020;-90
2023/11/07 21:59:23;;;;;;;5.65;2.92;;;;;;;9.10;81.07;98873.66;6268760;22;20030;-89
2023/11/07 22:01:50;;;;;;;8.80;4.03;;;;;;;9.04;81.10;98861.28;6244811;22;20016;-90
2023/11/07 22:04:16;;;;;;;5.25;3.22;;;;;;;9.37;81.43;98931.84;6245900;22;20020;-91
2023/11/07 22:06:43;;;;;;;6.97;4.03;;;;;;;9.49;81.03;98926.59;6248679;22;20016;-90
2023/11/07 22:09:09;;;;;;;10.60;4.60;;;;;;;9.16;80.99;98891.47;6224289;22;20000;-88
2023/11/07 22:11:35;;;;;;;7.82;3.70;;;;;;;9.29;80.92;98913.53;6265483;22;20023;-89
2023/11/07 22:14:01;;;;;;;7.60;3.72;;;;;;;9.01;81.04;98872.03;6241712;22;20027;-89
2023/11/07 22:16:27;;;;;;;5.40;3.63;;;;;;;9.23;81.43;98915.56;6267548;22;20012;-90
2023/11/07 22:18:54;;;;;;;10.27;4.37;;;;;;;8.68;81.71;98837.69;6244508;22;20024;-88
2023/11/07 22:21:20;;;;;;;7.28;4.57;;;;;;;8.74;82.11;98852.00;6245393;22;20035;-91
2023/11/07 22:23:47;;;;;;;7.40;3.78;;;;;;;8.98;82.17;98895.25;6220390;22;20024;-92
2023/11/07 22:26:14;;;;;;;5.73;3.83;;;;;;;8.86;82.11;98892.28;6249124;22;20004;-91
2023/11/07 22:28:40;;;;;;;4.18;3.15;;;;;;;8.74;82.27;98875.69;6220892;22;20038;-90
2023/11/07 22:31:08;;;;;;;11.52;4.30;;;;;;;9.10;82.06;98911.81;6272353;22;20016;-92
2023/11/07 22:33:34;;;;;;;9.52;3.80;;;;;;;8.98;81.79;98898.00;6218270;22;20016;-89
2023/11/07 22:36:00;;;;;;;8.95;3.67;;;;;;;9.01;81.76;98889.19;6242954;22;20053;-89
2023/11/07 22:38:26;;;;;;;9.03;4.40;;;;;;;9.29;81.47;98917.06;6218121;22;20031;-91
2023/11/07 22:41:21;;;;;;;10.43;4.72;;;;;;;9.51;81.14;98939.94;6247890;22;20019;-90
2023/11/07 22:43:47;;;;;;;13.48;5.53;;;;;;;9.31;81.50;98917.56;6193489;22;20020;-91
2023/11/07 22:46:16;;;;;;;8.55;4.97;;;;;;;8.90;81.40;98842.28;6243382;22;19999;-90
2023/11/07 22:48:50;;;;;;;9.02;5.40;;;;;;;9.21;81.38;98895.22;6246268;22;20003;-90
2023/11/07 22:51:18;;;;;;;11.02;4.47;;;;;;;9.03;81.18;98867.84;6246683;22;19999;-92
2023/11/07 22:53:44;;;;;;;7.43;3.90;;;;;;;9.23;80.91;98887.50;6222216;22;20027;-91
2023/11/07 22:56:11;;;;;;;14.50;3.53;;;;;;;9.36;80.98;98911.16;6250018;22;20098;-92
2023/11/07 22:58:38;;;;;;;8.82;3.78;;;;;;;9.38;81.03;98922.56;6245811;22;20038;-91
2023/11/07 23:01:05;;;;;;;;;;;;;;;9.54;80.48;98947.50;6195931;22;20023;-90
2023/11/07 23:03:31;;;;;;;;;;;;;;;9.59;80.50;98956.34;6247899;22;19915;-91
2023/11/07 23:05:59;;;;;;;4.75;3.25;;;;;;;9.22;80.55;98891.38;6244421;22;20003;-90
2023/11/07 23:08:26;;;;;;;7.05;3.20;;;;;;;8.98;80.27;98862.53;6271819;22;20049;-92
2023/11/07 23:10:52;;;;;;;8.13;3.88;;;;;;;9.13;80.45;98878.47;6196237;22;20019;-90
2023/11/07 23:13:20;;;;;;;5.07;3.35;;;;;;;9.02;80.68;98852.63;6244902;22;20085;-91
2023/11/07 23:15:47;;;;;;;9.63;3.22;;;;;;;9.12;80.42;98882.31;6195671;22;20019;-90
2023/11/07 23:18:13;;;;;;;;;;;;;;;9.54;80.48;98950.22;6173048;22;20024;-91
2023/11/07 23:20:41;;;;;;;6.25;3.20;;;;;;;9.02;80.39;98863.53;6295189;22;19967;-91
2023/11/07 23:23:09;;;;;;;7.97;3.00;;;;;;;9.04;80.79;98865.91;6220468;22;20030;-92
2023/11/07 23:25:36;;;;;;;4.47;3.13;;;;;;;9.06;80.42;98880.06;6199519;22;20029;-94
2023/11/07 23:28:23;;;;;;;6.93;3.90;;;;;;;9.40;80.13;98928.50;6279718;22;20097;-90
2023/11/07 23:30:50;;;;;;;10.55;3.97;;;;;;;9.18;79.87;98894.72;6218686;22;20016;-91
2023/11/07 23:33:17;;;;;;;5.60;3.80;;;;;;;9.34;79.86;98919.66;6244266;22;20042;-92
2023/11/07 23:35:48;;;;;;;4.13;3.08;;;;;;;8.96;80.07;98853.06;6193429;22;20030;-93
2023/11/07 23:38:15;;;;;;;5.45;3.05;;;;;;;9.36;79.94;98920.13;6218022;22;20026;-92
2023/11/07 23:40:43;;;;;;;8.25;3.47;;;;;;;9.44;79.71;98915.03;6242199;22;20034;-92
2023/11/07 23:43:10;;;;;;;6.20;3.28;;;;;;;9.20;79.44;98885.41;6220591;22;20019;-91
2023/11/07 23:45:52;;;;;;;5.63;3.22;;;;;;;9.02;79.23;98855.34;6217289;22;20066;-89
2023/11/07 23:48:25;;;;;;;6.90;3.20;;;;;;;9.11;79.01;98888.09;6241759;22;20015;-92
2023/11/07 23:50:52;;;;;;;6.38;3.20;;;;;;;9.04;79.18;98868.66;6236822;23;20023;-91
2023/11/07 23:53:18;;;;;;;6.10;3.10;;;;;;;9.23;79.49;98882.06;6185754;23;20047;-91
2023/11/07 23:55:45;;;;;;;7.18;3.00;;;;;;;9.36;78.69;98919.31;6240504;22;20075;-91
2023/11/07 23:58:22;;;;;;;7.85;3.30;;;;;;;9.55;78.86;98949.91;6261827;22;20066;-93
